createdAt,value
2022-12-01T00:00:43.662Z,18.80
2022-12-01T00:03:10.074Z,19.15
2022-12-01T00:05:36.751Z,19.83
2022-12-01T00:08:05.127Z,19.75
2022-12-01T00:10:33.275Z,20.58
2022-12-01T00:13:01.923Z,18.75
2022-12-01T00:17:56.013Z,18.40
2022-12-01T00:20:22.389Z,20.25
2022-12-01T00:22:49.226Z,19.60
2022-12-01T00:25:18.435Z,19.17
2022-12-01T00:27:51.434Z,19.88
2022-12-01T00:30:19.680Z,21.98
2022-12-01T00:32:46.514Z,20.08
2022-12-01T00:35:13.775Z,18.52
2022-12-01T00:37:40.099Z,20.27
2022-12-01T00:40:07.699Z,20.23
2022-12-01T00:42:34.319Z,21.30
2022-12-01T00:45:00.668Z,19.60
2022-12-01T00:47:27.138Z,21.73
2022-12-01T00:49:53.540Z,20.90
2022-12-01T00:52:20.232Z,21.10
2022-12-01T00:54:46.730Z,21.75
2022-12-01T00:57:13.628Z,20.98
2022-12-01T00:59:39.988Z,20.48
2022-12-01T01:02:07.857Z,21.83
2022-12-01T01:04:35.855Z,20.80
2022-12-01T01:07:02.434Z,22.45
2022-12-01T01:09:28.825Z,21.65
2022-12-01T01:11:55.205Z,21.83
2022-12-01T01:14:24.183Z,21.83
2022-12-01T01:16:50.716Z,21.52
2022-12-01T01:19:17.724Z,20.15
2022-12-01T01:21:44.120Z,20.52
2022-12-01T01:24:10.549Z,19.65
2022-12-01T01:26:37.975Z,21.05
2022-12-01T01:29:07.653Z,20.75
2022-12-01T01:31:34.612Z,20.90
2022-12-01T01:34:01.244Z,20.05
2022-12-01T01:36:27.901Z,19.13
2022-12-01T01:38:55.175Z,19.48
2022-12-01T01:41:22.638Z,20.40
2022-12-01T01:43:55.205Z,20.42
2022-12-01T01:46:24.584Z,20.65
2022-12-01T01:48:55.140Z,19.35
2022-12-01T01:51:27.022Z,19.38
2022-12-01T01:53:56.748Z,20.80
2022-12-01T01:56:23.770Z,21.00
2022-12-01T01:58:51.998Z,19.30
2022-12-01T02:01:18.495Z,22.42
2022-12-01T02:03:45.990Z,20.90
2022-12-01T02:06:12.388Z,21.55
2022-12-01T02:08:38.782Z,20.98
2022-12-01T02:11:48.519Z,21.48
2022-12-01T02:14:42.466Z,20.88
2022-12-01T02:17:41.852Z,21.20
2022-12-01T02:20:30.123Z,20.67
2022-12-01T02:23:31.237Z,20.42
2022-12-01T02:26:16.243Z,21.83
2022-12-01T02:29:09.057Z,20.08
2022-12-01T02:31:43.449Z,20.13
2022-12-01T02:34:43.611Z,20.73
2022-12-01T02:37:31.077Z,21.58
2022-12-01T02:40:07.640Z,21.63
2022-12-01T02:42:53.859Z,21.30
2022-12-01T02:45:31.520Z,21.30
2022-12-01T02:48:01.859Z,20.30
2022-12-01T02:50:31.796Z,21.08
2022-12-01T02:53:00.339Z,21.48
2022-12-01T02:55:26.717Z,20.90
2022-12-01T02:57:53.059Z,22.80
2022-12-01T03:00:19.682Z,21.25
2022-12-01T03:03:04.888Z,23.15
2022-12-01T03:05:48.233Z,20.98
2022-12-01T03:08:32.557Z,22.45
2022-12-01T03:11:00.462Z,21.02
2022-12-01T03:13:38.961Z,22.02
2022-12-01T03:16:21.226Z,21.00
2022-12-01T03:18:53.604Z,22.10
2022-12-01T03:21:22.875Z,21.95
2022-12-01T03:23:55.210Z,22.08
2022-12-01T03:26:24.254Z,20.73
2022-12-01T03:28:54.810Z,20.55
2022-12-01T03:31:29.022Z,22.60
2022-12-01T03:34:00.851Z,22.42
2022-12-01T03:36:32.467Z,21.98
2022-12-01T03:39:06.829Z,22.92
2022-12-01T03:41:41.817Z,23.35
2022-12-01T03:44:20.574Z,22.42
2022-12-01T03:46:53.844Z,22.65
2022-12-01T03:49:24.646Z,21.88
2022-12-01T03:52:12.668Z,23.23
2022-12-01T03:55:12.000Z,21.52
2022-12-01T03:57:46.170Z,21.55
2022-12-01T04:00:15.255Z,20.90
2022-12-01T04:02:41.709Z,21.20
2022-12-01T04:05:10.972Z,21.35
2022-12-01T04:07:38.323Z,21.83
2022-12-01T04:10:05.907Z,21.42
2022-12-01T04:12:33.133Z,21.25
2022-12-01T04:15:05.206Z,23.25
2022-12-01T04:17:31.532Z,23.10
2022-12-01T04:19:58.207Z,21.15
2022-12-01T04:22:25.061Z,19.83
2022-12-01T04:24:51.871Z,21.92
2022-12-01T04:27:18.915Z,21.63
2022-12-01T04:29:45.422Z,21.30
2022-12-01T04:32:12.468Z,20.75
2022-12-01T04:34:38.888Z,21.08
2022-12-01T04:37:06.069Z,20.00
2022-12-01T04:39:32.401Z,21.70
2022-12-01T04:41:58.729Z,23.17
2022-12-01T04:44:28.879Z,21.85
2022-12-01T04:46:58.007Z,22.38
2022-12-01T04:49:24.742Z,22.25
2022-12-01T04:51:51.185Z,21.25
2022-12-01T04:54:18.152Z,21.98
2022-12-01T04:56:44.993Z,22.75
2022-12-01T04:59:11.494Z,23.38
2022-12-01T05:01:38.468Z,21.55
2022-12-01T05:04:04.966Z,23.20
2022-12-01T05:06:31.330Z,23.63
2022-12-01T05:09:00.324Z,23.30
2022-12-01T05:11:28.546Z,20.60
2022-12-01T05:13:55.190Z,22.17
2022-12-01T05:16:25.090Z,22.00
2022-12-01T05:19:12.929Z,22.67
2022-12-01T05:21:40.216Z,21.35
2022-12-01T05:24:07.802Z,21.20
2022-12-01T05:26:34.605Z,21.48
2022-12-01T05:29:00.958Z,19.63
2022-12-01T05:31:27.506Z,18.05
2022-12-01T05:33:53.939Z,19.50
2022-12-01T05:36:20.257Z,21.02
2022-12-01T05:38:46.832Z,20.83
2022-12-01T05:41:13.469Z,20.20
2022-12-01T05:43:39.802Z,20.42
2022-12-01T05:46:06.298Z,21.73
2022-12-01T05:48:32.749Z,20.88
2022-12-01T05:50:59.173Z,20.92
2022-12-01T05:53:25.563Z,20.42
2022-12-01T05:55:53.440Z,20.30
2022-12-01T05:58:20.810Z,19.77
2022-12-01T06:00:47.184Z,20.17
2022-12-01T06:03:14.437Z,20.33
2022-12-01T06:05:40.867Z,21.75
2022-12-01T06:08:07.768Z,20.67
2022-12-01T06:10:34.466Z,20.60
2022-12-01T06:13:00.859Z,22.92
2022-12-01T06:15:27.305Z,20.90
2022-12-01T06:17:53.821Z,22.23
2022-12-01T06:20:20.504Z,22.73
2022-12-01T06:22:46.827Z,22.30
2022-12-01T06:25:13.133Z,22.42
2022-12-01T06:27:39.449Z,22.25
2022-12-01T06:30:06.760Z,22.80
2022-12-01T06:32:33.283Z,21.60
2022-12-01T06:34:59.636Z,23.00
2022-12-01T06:37:27.606Z,22.55
2022-12-01T06:39:54.171Z,22.48
2022-12-01T06:42:20.595Z,22.20
2022-12-01T06:44:46.933Z,21.42
2022-12-01T06:47:13.347Z,21.92
2022-12-01T06:49:39.710Z,23.10
2022-12-01T06:52:06.075Z,23.27
2022-12-01T06:54:33.374Z,24.02
2022-12-01T06:56:59.730Z,23.17
2022-12-01T06:59:26.160Z,21.90
2022-12-01T07:01:52.964Z,24.38
2022-12-01T07:04:19.333Z,22.13
2022-12-01T07:06:45.737Z,23.05
2022-12-01T07:09:12.344Z,23.33
2022-12-01T07:11:38.776Z,23.30
2022-12-01T07:14:05.199Z,23.70
2022-12-01T07:16:31.596Z,23.45
2022-12-01T07:18:59.821Z,22.70
2022-12-01T07:21:26.127Z,24.77
2022-12-01T07:23:52.492Z,23.73
2022-12-01T07:26:18.922Z,24.42
2022-12-01T07:28:45.439Z,25.67
2022-12-01T07:31:18.171Z,25.95
2022-12-01T07:33:45.064Z,24.33
2022-12-01T07:36:12.824Z,23.35
2022-12-01T07:38:39.854Z,27.77
2022-12-01T07:41:12.126Z,27.70
2022-12-01T07:43:38.938Z,25.88
2022-12-01T07:46:15.749Z,24.67
2022-12-01T07:48:45.489Z,24.92
2022-12-01T07:51:18.004Z,23.65
2022-12-01T07:53:45.764Z,25.38
2022-12-01T07:56:12.736Z,24.75
2022-12-01T07:58:39.490Z,23.50
2022-12-01T08:01:12.196Z,26.23
2022-12-01T08:03:39.009Z,25.92
2022-12-01T08:06:06.644Z,25.17
2022-12-01T08:08:36.088Z,25.60
2022-12-01T08:11:14.080Z,24.20
2022-12-01T08:13:41.805Z,24.85
2022-12-01T08:16:10.178Z,24.80
2022-12-01T08:18:38.229Z,25.63
2022-12-01T08:21:06.474Z,24.15
2022-12-01T08:23:33.290Z,25.50
2022-12-01T08:26:09.415Z,26.27
2022-12-01T08:28:36.844Z,25.52
2022-12-01T08:31:12.347Z,24.80
2022-12-01T08:33:38.896Z,23.20
2022-12-01T08:36:05.781Z,25.73
2022-12-01T08:38:33.058Z,24.70
2022-12-01T08:41:01.373Z,24.92
2022-12-01T08:43:49.967Z,23.90
2022-12-01T08:46:14.479Z,23.98
2022-12-01T08:48:41.282Z,24.50
2022-12-01T08:51:10.997Z,26.02
2022-12-01T08:53:44.090Z,24.08
2022-12-01T08:56:13.897Z,24.35
2022-12-01T08:58:40.412Z,27.00
2022-12-01T09:01:09.534Z,26.75
2022-12-01T09:03:37.534Z,25.75
2022-12-01T09:06:06.981Z,25.67
2022-12-01T09:08:35.082Z,26.65
2022-12-01T09:11:04.570Z,23.67
2022-12-01T09:13:33.055Z,26.90
2022-12-01T09:16:05.359Z,25.55
2022-12-01T09:18:32.244Z,25.55
2022-12-01T09:20:59.117Z,26.10
2022-12-01T09:23:26.548Z,25.88
2022-12-01T09:25:53.629Z,25.48
2022-12-01T09:28:20.617Z,24.55
2022-12-01T09:30:47.381Z,24.75
2022-12-01T09:33:13.838Z,21.55
2022-12-01T09:35:40.232Z,23.98
2022-12-01T09:38:06.573Z,23.42
2022-12-01T09:40:38.105Z,22.42
2022-12-01T09:43:13.631Z,23.20
2022-12-01T09:45:45.141Z,22.38
2022-12-01T09:48:23.571Z,25.02
2022-12-01T09:50:50.000Z,22.95
2022-12-01T09:53:21.448Z,24.38
2022-12-01T09:55:49.025Z,25.70
2022-12-01T09:58:20.373Z,24.55
2022-12-01T10:00:49.491Z,23.90
2022-12-01T10:03:32.980Z,26.67
2022-12-01T10:06:26.885Z,24.38
2022-12-01T10:09:20.714Z,26.30
2022-12-01T10:11:48.427Z,24.13
2022-12-01T10:14:19.979Z,24.20
2022-12-01T10:17:18.098Z,25.38
2022-12-01T10:20:11.742Z,25.48
2022-12-01T10:23:05.756Z,22.58
2022-12-01T10:25:42.394Z,24.73
2022-12-01T10:28:39.405Z,25.35
2022-12-01T10:31:20.228Z,24.58
2022-12-01T10:33:58.338Z,24.85
2022-12-01T10:36:26.154Z,24.10
2022-12-01T10:38:52.728Z,23.70
2022-12-01T10:41:22.128Z,24.23
2022-12-01T10:43:52.412Z,21.60
2022-12-01T10:46:27.644Z,23.00
2022-12-01T10:48:59.327Z,24.17
2022-12-01T10:51:27.548Z,23.73
2022-12-01T10:54:08.078Z,22.85
2022-12-01T10:56:39.121Z,24.13
2022-12-01T10:59:24.349Z,24.83
2022-12-01T11:01:51.030Z,24.58
2022-12-01T11:04:44.947Z,23.85
2022-12-01T11:07:22.740Z,23.35
2022-12-01T11:10:02.646Z,23.80
2022-12-01T11:12:29.513Z,22.77
2022-12-01T11:14:57.343Z,23.92
2022-12-01T11:17:40.304Z,25.13
2022-12-01T11:20:28.354Z,22.27
2022-12-01T11:23:09.888Z,24.30
2022-12-01T11:25:36.647Z,23.80
2022-12-01T11:28:04.483Z,24.70
2022-12-01T11:30:32.697Z,22.13
2022-12-01T11:33:02.520Z,23.35
2022-12-01T11:35:36.194Z,21.75
2022-12-01T11:40:55.316Z,20.50
2022-12-01T11:43:34.347Z,19.05
2022-12-01T11:46:05.828Z,20.58
2022-12-01T11:48:36.161Z,18.50
2022-12-01T11:51:27.229Z,19.30
2022-12-01T11:54:14.254Z,19.70
2022-12-01T11:56:42.204Z,18.77
2022-12-01T11:59:17.830Z,18.80
2022-12-01T12:02:06.550Z,20.17
2022-12-01T12:04:42.858Z,18.80
2022-12-01T12:07:24.656Z,18.60
2022-12-01T12:10:05.512Z,18.77
2022-12-01T12:12:47.102Z,19.88
2022-12-01T12:15:51.103Z,19.60
2022-12-01T12:18:17.433Z,19.67
2022-12-01T12:20:59.235Z,18.95
2022-12-01T12:23:28.586Z,18.35
2022-12-01T12:26:20.474Z,16.88
2022-12-01T12:29:24.528Z,15.68
2022-12-01T12:32:19.599Z,15.68
2022-12-01T12:35:03.906Z,16.52
2022-12-01T12:37:53.845Z,15.30
2022-12-01T12:40:32.748Z,14.52
2022-12-01T12:43:05.120Z,15.90
2022-12-01T12:45:50.332Z,15.95
2022-12-01T12:48:32.735Z,15.88
2022-12-01T12:51:23.647Z,16.08
2022-12-01T12:53:57.961Z,16.52
2022-12-01T12:56:26.810Z,17.13
2022-12-01T12:59:05.478Z,18.05
2022-12-01T13:01:41.032Z,17.48
2022-12-01T13:04:14.192Z,17.95
2022-12-01T13:06:47.166Z,18.45
2022-12-01T13:09:20.078Z,16.90
2022-12-01T13:11:59.015Z,18.13
2022-12-01T13:14:34.868Z,18.05
2022-12-01T13:17:24.222Z,16.83
2022-12-01T13:19:50.857Z,18.23
2022-12-01T13:22:21.785Z,18.48
2022-12-01T13:24:48.210Z,19.60
2022-12-01T13:27:19.283Z,19.77
2022-12-01T13:29:49.585Z,19.88
2022-12-01T13:32:31.934Z,19.17
2022-12-01T13:35:00.289Z,19.40
2022-12-01T13:37:35.486Z,19.60
2022-12-01T13:40:24.216Z,20.35
2022-12-01T13:43:20.915Z,22.02
2022-12-01T13:45:48.944Z,21.73
2022-12-01T13:48:49.997Z,19.83
2022-12-01T13:51:16.528Z,20.17
2022-12-01T13:54:05.873Z,20.25
2022-12-01T13:56:39.776Z,20.48
2022-12-01T13:59:38.008Z,20.60
2022-12-01T14:02:19.684Z,20.50
2022-12-01T14:04:46.478Z,20.45
2022-12-01T14:07:19.221Z,19.33
2022-12-01T14:09:45.991Z,19.67
2022-12-01T14:12:19.709Z,20.80
2022-12-01T14:15:02.111Z,21.73
2022-12-01T14:17:38.542Z,20.20
2022-12-01T14:20:12.966Z,21.38
2022-12-01T14:22:46.016Z,20.40
2022-12-01T14:25:21.353Z,21.52
2022-12-01T14:27:55.249Z,20.90
2022-12-01T14:30:40.039Z,20.13
2022-12-01T14:33:42.280Z,19.92
2022-12-01T14:36:24.227Z,19.77
2022-12-01T14:38:59.418Z,20.05
2022-12-01T14:41:33.427Z,20.83
2022-12-01T14:44:05.404Z,20.52
2022-12-01T14:47:04.348Z,19.45
2022-12-01T14:49:49.925Z,18.92
2022-12-01T14:52:42.194Z,21.00
2022-12-01T14:55:19.173Z,19.80
2022-12-01T14:58:00.103Z,21.33
2022-12-01T15:00:26.739Z,21.67
2022-12-01T15:02:58.837Z,22.13
2022-12-01T15:05:28.206Z,22.55
2022-12-01T15:08:18.634Z,22.42
2022-12-01T15:10:51.677Z,21.15
2022-12-01T15:13:28.256Z,22.67
2022-12-01T15:15:56.195Z,23.33
2022-12-01T15:18:39.565Z,23.60
2022-12-01T15:21:12.029Z,22.70
2022-12-01T15:24:01.914Z,22.38
2022-12-01T15:26:34.258Z,20.67
2022-12-01T15:29:31.697Z,20.35
2022-12-01T15:32:02.952Z,22.10
2022-12-01T15:34:38.500Z,19.98
2022-12-01T15:37:09.554Z,21.95
2022-12-01T15:39:42.838Z,21.40
2022-12-01T15:42:22.717Z,21.65
2022-12-01T15:45:12.586Z,21.42
2022-12-01T15:47:43.407Z,22.70
2022-12-01T15:50:48.993Z,22.17
2022-12-01T15:53:29.309Z,21.23
2022-12-01T15:55:59.355Z,21.48
2022-12-01T15:58:30.132Z,21.30
2022-12-01T16:01:02.413Z,22.50
2022-12-01T16:03:29.420Z,23.42
2022-12-01T16:05:57.069Z,22.17
2022-12-01T16:08:27.080Z,21.17
2022-12-01T16:11:11.382Z,22.00
2022-12-01T16:13:47.878Z,22.35
2022-12-01T16:16:46.285Z,22.73
2022-12-01T16:22:11.950Z,23.02
2022-12-01T16:24:46.540Z,20.33
2022-12-01T16:27:23.711Z,22.27
2022-12-01T16:30:06.368Z,22.05
2022-12-01T16:32:38.417Z,22.42
2022-12-01T16:35:24.616Z,23.85
2022-12-01T16:37:51.034Z,23.58
2022-12-01T16:40:17.477Z,22.75
2022-12-01T16:42:43.956Z,22.38
2022-12-01T16:45:14.667Z,23.30
2022-12-01T16:47:42.346Z,21.75
2022-12-01T16:50:14.769Z,22.53
2022-12-01T16:52:44.541Z,23.30
2022-12-01T16:55:29.251Z,23.20
2022-12-01T16:57:55.831Z,22.80
2022-12-01T17:00:23.402Z,25.05
2022-12-01T17:02:50.192Z,24.40
2022-12-01T17:05:16.769Z,23.13
2022-12-01T17:07:43.204Z,22.80
2022-12-01T17:10:10.337Z,22.70
2022-12-01T17:12:36.760Z,22.58
2022-12-01T17:15:04.181Z,23.45
2022-12-01T17:17:30.551Z,21.52
2022-12-01T17:19:56.916Z,23.73
2022-12-01T17:22:24.321Z,23.52
2022-12-01T17:24:51.027Z,23.25
2022-12-01T17:27:18.022Z,22.02
2022-12-01T17:29:46.426Z,23.05
2022-12-01T17:32:13.928Z,22.52
2022-12-01T17:34:40.448Z,23.38
2022-12-01T17:37:07.110Z,23.10
2022-12-01T17:39:33.657Z,24.38
2022-12-01T17:42:00.005Z,22.38
2022-12-01T17:44:26.645Z,22.17
2022-12-01T17:46:53.199Z,22.15
2022-12-01T17:49:19.716Z,23.67
2022-12-01T17:51:46.144Z,23.27
2022-12-01T17:54:12.603Z,23.63
2022-12-01T17:56:39.148Z,21.38
2022-12-01T17:59:05.572Z,24.45
2022-12-01T18:01:32.323Z,22.42
2022-12-01T18:03:59.135Z,21.95
2022-12-01T18:06:26.819Z,22.10
2022-12-01T18:08:53.552Z,22.15
2022-12-01T18:11:20.368Z,22.70
2022-12-01T18:13:49.183Z,22.77
2022-12-01T18:16:20.981Z,22.67
2022-12-01T18:18:48.109Z,23.55
2022-12-01T18:21:17.154Z,22.63
2022-12-01T18:23:52.734Z,22.80
2022-12-01T18:26:21.835Z,22.35
2022-12-01T18:28:54.983Z,23.05
2022-12-01T18:31:21.539Z,22.70
2022-12-01T18:33:48.061Z,22.30
2022-12-01T18:36:18.317Z,23.85
2022-12-01T18:38:47.091Z,23.15
2022-12-01T18:43:40.124Z,21.58
2022-12-01T18:46:07.460Z,20.15
2022-12-01T18:48:35.011Z,19.05
2022-12-01T18:51:05.955Z,21.10
2022-12-01T18:53:35.459Z,20.52
2022-12-01T18:56:06.933Z,21.10
2022-12-01T18:58:33.842Z,21.63
2022-12-01T19:01:01.147Z,21.55
2022-12-01T19:03:33.251Z,21.13
2022-12-01T19:05:59.685Z,21.08
2022-12-01T19:08:26.096Z,21.13
2022-12-01T19:11:03.415Z,20.95
2022-12-01T19:13:31.213Z,22.77
2022-12-01T19:15:57.754Z,21.40
2022-12-01T19:18:24.818Z,24.58
2022-12-01T19:20:51.252Z,23.77
2022-12-01T19:23:17.633Z,23.17
2022-12-01T19:25:43.934Z,24.30
2022-12-01T19:28:10.298Z,23.80
2022-12-01T19:30:36.696Z,25.35
2022-12-01T19:33:03.085Z,26.65
2022-12-01T19:35:29.490Z,26.75
2022-12-01T19:37:55.842Z,25.10
2022-12-01T19:40:22.208Z,26.55
2022-12-01T19:42:48.570Z,27.55
2022-12-01T19:45:14.985Z,28.08
2022-12-01T19:47:41.339Z,25.77
2022-12-01T19:50:08.414Z,27.83
2022-12-01T19:52:36.485Z,27.58
2022-12-01T19:55:03.227Z,28.02
2022-12-01T19:57:29.573Z,28.15
2022-12-01T19:59:55.928Z,28.98
2022-12-01T20:02:28.947Z,28.40
2022-12-01T20:04:56.524Z,31.05
2022-12-01T20:07:23.147Z,31.60
2022-12-01T20:09:50.231Z,32.90
2022-12-01T20:12:16.812Z,38.42
2022-12-01T20:14:43.223Z,31.10
2022-12-01T20:17:15.581Z,30.92
2022-12-01T20:19:42.345Z,29.63
2022-12-01T20:22:08.744Z,29.17
2022-12-01T20:24:35.914Z,31.00
2022-12-01T20:27:02.621Z,30.52
2022-12-01T20:29:29.741Z,31.98
2022-12-01T20:31:58.044Z,30.48
2022-12-01T20:34:27.533Z,33.53
2022-12-01T20:36:54.981Z,31.67
2022-12-01T20:39:21.634Z,32.78
2022-12-01T20:41:48.404Z,32.03
2022-12-01T20:44:16.622Z,33.42
2022-12-01T20:46:47.636Z,32.63
2022-12-01T20:49:16.673Z,31.95
2022-12-01T20:51:43.627Z,31.55
2022-12-01T20:54:29.864Z,32.08
2022-12-01T20:56:57.405Z,32.40
2022-12-01T20:59:24.018Z,32.40
2022-12-01T21:01:50.401Z,33.95
2022-12-01T21:04:17.596Z,35.92
2022-12-01T21:06:44.021Z,34.00
2022-12-01T21:09:11.492Z,34.47
2022-12-01T21:12:04.785Z,35.35
2022-12-01T21:14:39.020Z,33.13
2022-12-01T21:17:18.640Z,34.78
2022-12-01T21:20:01.356Z,36.28
2022-12-01T21:22:27.777Z,35.63
2022-12-01T21:25:03.506Z,34.88
2022-12-01T21:27:29.869Z,35.63
2022-12-01T21:29:56.855Z,35.13
2022-12-01T21:32:31.207Z,34.17
2022-12-01T21:35:13.982Z,35.97
2022-12-01T21:37:40.348Z,34.55
2022-12-01T21:40:20.332Z,32.65
2022-12-01T21:42:47.529Z,33.05
2022-12-01T21:45:31.874Z,35.10
2022-12-01T21:48:05.760Z,34.53
2022-12-01T21:50:32.758Z,34.45
2022-12-01T21:52:59.168Z,32.92
2022-12-01T21:55:26.005Z,34.13
2022-12-01T21:57:53.691Z,34.75
2022-12-01T22:00:26.611Z,35.17
2022-12-01T22:03:12.071Z,34.83
2022-12-01T22:05:41.464Z,34.20
2022-12-01T22:08:24.482Z,34.85
2022-12-01T22:11:04.593Z,34.55
2022-12-01T22:13:41.890Z,32.97
2022-12-01T22:16:14.595Z,32.65
2022-12-01T22:18:44.734Z,34.03
2022-12-01T22:21:29.861Z,32.53
2022-12-01T22:24:11.290Z,33.40
2022-12-01T22:26:41.179Z,31.90
2022-12-01T22:29:22.608Z,32.88
2022-12-01T22:31:48.942Z,32.47
2022-12-01T22:34:16.570Z,32.53
2022-12-01T22:36:42.872Z,32.83
2022-12-01T22:39:46.842Z,31.10
2022-12-01T22:42:20.861Z,31.75
2022-12-01T22:44:47.553Z,33.60
2022-12-01T22:47:14.474Z,31.88
2022-12-01T22:49:42.332Z,34.03
2022-12-01T22:52:22.349Z,34.90
2022-12-01T22:54:50.270Z,35.85
2022-12-01T22:57:28.321Z,34.25
2022-12-01T22:59:55.326Z,30.48
2022-12-01T23:02:29.706Z,30.67
2022-12-01T23:05:01.536Z,30.92
2022-12-01T23:07:33.864Z,31.63
2022-12-01T23:10:12.069Z,30.88
2022-12-01T23:12:38.681Z,32.03
2022-12-01T23:15:32.152Z,29.48
2022-12-01T23:18:17.986Z,28.65
2022-12-01T23:20:46.962Z,30.73
2022-12-01T23:23:30.367Z,29.42
2022-12-01T23:25:57.234Z,29.60
2022-12-01T23:28:24.535Z,31.73
2022-12-01T23:30:58.081Z,27.25
2022-12-01T23:33:27.942Z,30.00
2022-12-01T23:35:59.283Z,27.70
2022-12-01T23:38:37.158Z,28.55
2022-12-01T23:41:16.371Z,27.35
2022-12-01T23:43:45.010Z,28.95
2022-12-01T23:46:20.550Z,30.60
2022-12-01T23:48:51.168Z,27.88
2022-12-01T23:51:28.365Z,30.55
2022-12-01T23:53:56.415Z,29.20
2022-12-01T23:56:25.019Z,30.13
2022-12-01T23:58:52.726Z,27.70
